Time;durP1;ratioP1;P1;durP2;ratioP2;P2;SDS_P1;SDS_P2;PMS_P1;PMS_P2;Temp;Humidity;BMP_temperature;BMP_pressure;BME280_temperature;BME280_humidity;BME280_pressure;Samples;Min_cycle;Max_cycle;Signal;HPM_P1;HPM_P2
2023/04/09 00:01:10;;;;;;;1.50;1.40;;;;;;;;;;5093212;28;20910;-69
2023/04/09 00:03:38;;;;;;;1.30;1.20;;;;;;;;;;5100107;27;20501;-69
2023/04/09 00:06:05;;;;;;;0.98;0.93;;;;;;;;;;5100480;27;20426;-69
2023/04/09 00:08:32;;;;;;;1.45;1.00;;;;;;;;;;5111197;27;20449;-69
2023/04/09 00:10:59;;;;;;;1.20;1.08;;;;;;;;;;5096234;27;20433;-69
2023/04/09 00:13:26;;;;;;;1.15;1.08;;;;;;;;;;5095421;27;20434;-69
2023/04/09 00:16:05;;;;;;;1.08;0.90;;;;;;;;;;5108668;27;20436;-69
2023/04/09 00:18:32;;;;;;;1.08;1.02;;;;;;;;;;5099780;27;20437;-69
2023/04/09 00:20:59;;;;;;;2.30;1.42;;;;;;;;;;5094589;27;20465;-69
2023/04/09 00:23:29;;;;;;;1.20;1.10;;;;;;;;;;5097246;27;20436;-69
2023/04/09 00:25:56;;;;;;;1.38;1.38;;;;;;;;;;5104642;27;20444;-69
2023/04/09 00:28:24;;;;;;;1.27;1.05;;;;;;;;;;5092274;28;20438;-70
2023/04/09 00:30:51;;;;;;;2.38;1.13;;;;;;;;;;5107353;27;20436;-69
2023/04/09 00:33:23;;;;;;;1.80;1.05;;;;;;;;;;5100564;27;20451;-69
2023/04/09 00:35:50;;;;;;;1.92;1.20;;;;;;;;;;5110770;27;20430;-68
2023/04/09 00:38:18;;;;;;;2.13;1.50;;;;;;;;;;5090309;28;20523;-69
2023/04/09 00:40:48;;;;;;;0.95;0.93;;;;;;;;;;5099592;27;20428;-68
2023/04/09 00:43:16;;;;;;;1.00;0.90;;;;;;;;;;5100654;27;20420;-69
2023/04/09 00:45:44;;;;;;;1.30;1.20;;;;;;;;;;5105781;28;20980;-69
2023/04/09 00:48:21;;;;;;;1.40;1.30;;;;;;;;;;5094456;28;20811;-69
2023/04/09 00:50:48;;;;;;;1.10;1.10;;;;;;;;;;5106791;27;20918;-69
2023/04/09 00:53:15;;;;;;;0.63;0.63;;;;;;;;;;5094798;27;20910;-69
2023/04/09 00:55:43;;;;;;;1.17;1.08;;;;;;;;;;5102097;28;20432;-69
2023/04/09 00:58:15;;;;;;;2.40;1.30;;;;;;;;;;5094609;28;20430;-68
2023/04/09 01:00:42;;;;;;;1.63;1.40;;;;;;;;;;5103699;28;20429;-69
2023/04/09 01:03:09;;;;;;;1.33;1.27;;;;;;;;;;5098043;28;20425;-69
2023/04/09 01:05:56;;;;;;;1.30;1.30;;;;;;;;;;5097748;28;20475;-69
2023/04/09 01:08:48;;;;;;;3.80;1.33;;;;;;;;;;5106682;28;20420;-69
2023/04/09 01:11:16;;;;;;;1.35;1.33;;;;;;;;;;5100917;28;20439;-69
2023/04/09 01:13:49;;;;;;;1.05;1.02;;;;;;;;;;5104093;27;20457;-69
2023/04/09 01:16:20;;;;;;;1.60;1.00;;;;;;;;;;5109715;27;20433;-69
2023/04/09 01:19:10;;;;;;;4.03;0.90;;;;;;;;;;5107925;28;20936;-69
2023/04/09 01:21:39;;;;;;;1.25;1.17;;;;;;;;;;5094996;28;20465;-69
2023/04/09 01:24:24;;;;;;;1.30;1.02;;;;;;;;;;5094097;28;20957;-70
2023/04/09 01:26:57;;;;;;;0.90;0.90;;;;;;;;;;5110152;27;20426;-69
2023/04/09 01:29:29;;;;;;;1.58;1.30;;;;;;;;;;5098926;27;20428;-69
2023/04/09 01:31:57;;;;;;;1.70;1.42;;;;;;;;;;5088853;28;20531;-69
2023/04/09 01:34:28;;;;;;;0.93;0.93;;;;;;;;;;5114727;27;20467;-69
2023/04/09 01:36:57;;;;;;;1.00;1.00;;;;;;;;;;5109845;27;20420;-69
2023/04/09 01:39:25;;;;;;;2.60;1.30;;;;;;;;;;5098110;27;20426;-69
2023/04/09 01:41:53;;;;;;;2.50;1.13;;;;;;;;;;5096602;27;20424;-69
2023/04/09 01:44:20;;;;;;;2.13;1.02;;;;;;;;;;5117968;27;20433;-69
2023/04/09 01:46:47;;;;;;;1.58;1.30;;;;;;;;;;5107611;27;20481;-69
2023/04/09 01:49:15;;;;;;;1.23;1.23;;;;;;;;;;5112026;27;20530;-69
2023/04/09 01:51:42;;;;;;;2.50;1.58;;;;;;;;;;5107472;27;20448;-69
2023/04/09 01:54:09;;;;;;;1.70;1.60;;;;;;;;;;5094835;27;20429;-68
2023/04/09 01:56:44;;;;;;;1.33;1.33;;;;;;;;;;5104535;27;20474;-68
2023/04/09 01:59:11;;;;;;;3.03;1.13;;;;;;;;;;5106590;27;20621;-70
2023/04/09 02:01:41;;;;;;;1.25;1.25;;;;;;;;;;5100719;27;20512;-70
2023/04/09 02:04:10;;;;;;;0.95;0.95;;;;;;;;;;5097525;27;20454;-69
2023/04/09 02:06:49;;;;;;;0.70;0.70;;;;;;;;;;5104645;27;20430;-70
2023/04/09 02:09:19;;;;;;;2.40;1.60;;;;;;;;;;5098311;27;20468;-70
2023/04/09 02:11:48;;;;;;;0.98;0.88;;;;;;;;;;5099754;27;20445;-70
2023/04/09 02:14:15;;;;;;;1.02;1.02;;;;;;;;;;5105015;27;20424;-70
2023/04/09 02:16:42;;;;;;;0.93;0.93;;;;;;;;;;5106330;27;20424;-70
2023/04/09 02:19:10;;;;;;;0.50;0.50;;;;;;;;;;5106919;27;20442;-70
2023/04/09 02:21:40;;;;;;;1.02;0.98;;;;;;;;;;5098878;27;20524;-70
2023/04/09 02:24:07;;;;;;;1.27;1.17;;;;;;;;;;5098098;27;20440;-70
2023/04/09 02:26:34;;;;;;;1.75;1.63;;;;;;;;;;5107150;27;20521;-70
2023/04/09 02:29:02;;;;;;;1.23;1.23;;;;;;;;;;5101067;27;20427;-70
2023/04/09 02:31:29;;;;;;;1.00;1.00;;;;;;;;;;5105226;27;20426;-70
2023/04/09 02:33:56;;;;;;;1.05;0.98;;;;;;;;;;5114180;27;20898;-70
2023/04/09 02:36:23;;;;;;;1.48;0.82;;;;;;;;;;5103040;27;20434;-70
2023/04/09 02:38:50;;;;;;;1.15;1.10;;;;;;;;;;5100984;27;20902;-70
2023/04/09 02:41:18;;;;;;;1.70;1.40;;;;;;;;;;5103141;27;20429;-70
2023/04/09 02:43:45;;;;;;;1.02;1.02;;;;;;;;;;5099462;27;20458;-70
2023/04/09 02:46:12;;;;;;;1.40;1.30;;;;;;;;;;5098454;27;20424;-70
2023/04/09 02:48:39;;;;;;;2.13;1.27;;;;;;;;;;5092642;28;20423;-70
2023/04/09 02:51:07;;;;;;;0.95;0.88;;;;;;;;;;5101953;27;22052;-70
2023/04/09 02:53:36;;;;;;;3.42;1.35;;;;;;;;;;5097908;27;20421;-70
2023/04/09 02:56:03;;;;;;;2.08;1.90;;;;;;;;;;5109770;27;20428;-70
2023/04/09 02:58:31;;;;;;;3.13;1.17;;;;;;;;;;5101114;27;20473;-70
2023/04/09 03:00:58;;;;;;;1.63;1.52;;;;;;;;;;5102306;27;20429;-70
2023/04/09 03:03:25;;;;;;;0.90;0.90;;;;;;;;;;5106511;27;20945;-70
2023/04/09 03:05:52;;;;;;;0.73;0.73;;;;;;;;;;5096716;27;21039;-69
2023/04/09 03:08:19;;;;;;;2.58;1.42;;;;;;;;;;5096951;27;20425;-70
2023/04/09 03:10:46;;;;;;;1.10;0.85;;;;;;;;;;5103373;27;20428;-69
2023/04/09 03:13:14;;;;;;;0.85;0.82;;;;;;;;;;5100662;27;20781;-70
2023/04/09 03:15:41;;;;;;;0.60;0.60;;;;;;;;;;5110181;27;20922;-69
2023/04/09 03:18:08;;;;;;;1.08;0.80;;;;;;;;;;5104337;27;20465;-70
2023/04/09 03:20:38;;;;;;;1.10;0.98;;;;;;;;;;5103349;27;20414;-69
2023/04/09 03:23:05;;;;;;;1.67;1.52;;;;;;;;;;5105121;27;20537;-70
2023/04/09 03:25:32;;;;;;;2.60;1.80;;;;;;;;;;5102041;27;20478;-70
2023/04/09 03:28:03;;;;;;;1.02;1.02;;;;;;;;;;5096931;27;20503;-69
2023/04/09 03:30:30;;;;;;;1.52;1.42;;;;;;;;;;5098347;28;20422;-70
2023/04/09 03:33:00;;;;;;;2.72;1.95;;;;;;;;;;5099183;28;20420;-70
2023/04/09 03:35:27;;;;;;;1.02;0.93;;;;;;;;;;5098572;27;20476;-69
2023/04/09 03:37:54;;;;;;;0.95;0.95;;;;;;;;;;5099592;27;20426;-70
2023/04/09 03:40:22;;;;;;;1.67;1.23;;;;;;;;;;5098461;28;20424;-70
2023/04/09 03:42:49;;;;;;;1.60;0.80;;;;;;;;;;5102312;27;20457;-69
2023/04/09 03:45:19;;;;;;;4.15;1.13;;;;;;;;;;5092693;28;20426;-70
2023/04/09 03:47:46;;;;;;;1.13;1.13;;;;;;;;;;5087685;28;20432;-70
2023/04/09 03:50:14;;;;;;;1.50;1.40;;;;;;;;;;5106008;27;20427;-70
2023/04/09 03:52:41;;;;;;;2.10;1.60;;;;;;;;;;5103351;27;20428;-70
2023/04/09 03:55:09;;;;;;;1.92;1.20;;;;;;;;;;5093539;27;20430;-70
2023/04/09 03:57:36;;;;;;;5.10;1.40;;;;;;;;;;5097974;28;20998;-70
2023/04/09 04:00:03;;;;;;;1.88;1.75;;;;;;;;;;5095913;28;20432;-70
2023/04/09 04:02:32;;;;;;;1.38;1.10;;;;;;;;;;5092090;28;20985;-69
2023/04/09 04:05:00;;;;;;;1.40;1.27;;;;;;;;;;5091861;27;20464;-70
2023/04/09 04:07:27;;;;;;;0.88;0.57;;;;;;;;;;5099544;27;20424;-70
2023/04/09 04:09:54;;;;;;;0.98;0.90;;;;;;;;;;5096608;28;21099;-70
2023/04/09 04:12:21;;;;;;;1.58;1.33;;;;;;;;;;5089530;27;20434;-69
2023/04/09 04:14:48;;;;;;;1.67;1.35;;;;;;;;;;5090345;28;20426;-69
2023/04/09 04:17:16;;;;;;;0.68;0.68;;;;;;;;;;5090524;27;20434;-70
2023/04/09 04:19:43;;;;;;;1.42;1.33;;;;;;;;;;5093051;27;20495;-70
2023/04/09 04:22:10;;;;;;;1.60;1.17;;;;;;;;;;5090587;28;20430;-70
2023/04/09 04:24:39;;;;;;;1.52;1.42;;;;;;;;;;5109465;27;20431;-69
2023/04/09 04:27:06;;;;;;;1.70;1.50;;;;;;;;;;5092428;28;20422;-71
2023/04/09 04:29:36;;;;;;;0.85;0.85;;;;;;;;;;5094466;27;20437;-70
2023/04/09 04:32:03;;;;;;;1.27;1.17;;;;;;;;;;5087135;28;20995;-70
2023/04/09 04:34:31;;;;;;;0.90;0.90;;;;;;;;;;5104655;27;20420;-70
2023/04/09 04:36:58;;;;;;;1.55;1.45;;;;;;;;;;5105851;28;20443;-70
2023/04/09 04:39:25;;;;;;;1.80;1.23;;;;;;;;;;5089979;28;21027;-69
2023/04/09 04:41:52;;;;;;;2.00;1.47;;;;;;;;;;5095680;27;20421;-69
2023/04/09 04:44:19;;;;;;;1.60;1.25;;;;;;;;;;5102022;28;20914;-70
2023/04/09 04:46:46;;;;;;;1.17;1.17;;;;;;;;;;5110968;27;20477;-69
2023/04/09 04:49:13;;;;;;;0.95;0.93;;;;;;;;;;5100027;27;20434;-69
2023/04/09 04:51:40;;;;;;;1.55;1.45;;;;;;;;;;5100503;28;20428;-70
2023/04/09 04:54:07;;;;;;;3.33;1.85;;;7.00;99.90;;;;;;5091067;28;20426;-70
2023/04/09 04:56:34;;;;;;;1.52;1.48;;;1.00;99.90;;;;;;5096013;28;20426;-70
2023/04/09 04:59:00;;;;;;;2.90;1.60;;;0.90;99.90;;;;;;5087109;28;20529;-70
2023/04/09 05:01:27;;;;;;;1.00;1.00;;;0.90;99.90;;;;;;5099788;28;20420;-70
2023/04/09 05:03:57;;;;;;;4.53;1.13;;;0.90;99.90;;;;;;5115292;28;20431;-70
2023/04/09 05:06:25;;;;;;;0.93;0.93;;;0.90;99.90;;;;;;5096242;27;20459;-70
2023/04/09 05:08:53;;;;;;;1.25;1.02;;;0.90;99.90;;;;;;5105672;27;20522;-70
2023/04/09 05:11:27;;;;;;;1.45;1.15;;;0.90;99.90;;;;;;5100397;27;20478;-69
2023/04/09 05:13:53;;;;;;;0.90;0.80;;;0.90;99.90;;;;;;5098151;27;20426;-69
2023/04/09 05:16:20;;;;;;;1.40;1.30;;;0.90;99.90;;;;;;5114138;27;20426;-70
2023/04/09 05:18:47;;;;;;;2.45;1.90;;;1.00;99.90;;;;;;5099602;27;20433;-70
2023/04/09 05:21:14;;;;;;;1.15;0.68;;;1.00;99.90;;;;;;5102469;27;20430;-70
2023/04/09 05:23:43;;;;;;;1.23;1.20;;;1.00;99.90;;;;;;5102439;27;20520;-70
2023/04/09 05:26:10;;;;;;;2.72;1.83;;;1.10;99.90;;;;;;5092823;28;20429;-70
2023/04/09 05:28:37;;;;;;;2.60;1.25;;;1.10;99.90;;;;;;5095657;27;20433;-70
2023/04/09 05:31:03;;;;;;;0.60;0.60;;;1.20;99.90;;;;;;5099359;27;20434;-70
2023/04/09 05:33:36;;;;;;;1.67;1.02;;;1.20;99.90;;;;;;5105348;27;20458;-70
2023/04/09 05:36:03;;;;;;;1.35;1.25;;;1.30;99.90;;;;;;5097087;27;20421;-70
2023/04/09 05:38:30;;;;;;;1.53;1.13;;;1.30;99.90;;;;;;5104638;27;20494;-70
2023/04/09 05:40:57;;;;;;;1.08;0.85;;;;;;;;;;5099822;27;20417;-70
2023/04/09 05:43:24;;;;;;;1.70;1.25;;;1.30;99.90;;;;;;5100039;27;20506;-70
2023/04/09 05:45:51;;;;;;;1.20;0.90;;;;;;;;;;5107387;27;20434;-70
2023/04/09 05:48:18;;;;;;;2.20;2.00;;;1.40;99.90;;;;;;5100214;27;20422;-70
2023/04/09 05:50:51;;;;;;;1.05;1.05;;;1.80;99.90;;;;;;5100315;27;20921;-70
2023/04/09 05:53:21;;;;;;;2.05;1.00;;;2.00;99.90;;;;;;5098810;28;20437;-70
2023/04/09 05:55:48;;;;;;;1.43;1.33;;;2.20;99.90;;;;;;5102370;28;20473;-70
2023/04/09 05:58:17;;;;;;;0.90;0.90;;;;;;;;;;5098264;28;20425;-69
2023/04/09 06:00:45;;;;;;;3.50;1.80;;;;;;;;;;5090886;27;20449;-70
2023/04/09 06:03:12;;;;;;;1.60;1.50;;;;;;;;;;5099339;27;20473;-70
2023/04/09 06:05:39;;;;;;;1.88;1.45;;;;;;;;;;5115306;27;20790;-70
2023/04/09 06:08:08;;;;;;;1.48;1.20;;;;;;;;;;5115386;27;20422;-70
2023/04/09 06:10:36;;;;;;;1.00;0.98;;;;;;;;;;5114067;27;20527;-70
2023/04/09 06:13:03;;;;;;;1.20;1.10;;;;;;;;;;5114512;27;20434;-70
2023/04/09 06:15:30;;;;;;;1.75;1.27;;;;;;;;;;5097957;27;20443;-70
2023/04/09 06:17:57;;;;;;;2.20;1.92;;;2.40;99.90;;;;;;5105683;27;20438;-70
2023/04/09 06:20:28;;;;;;;1.77;1.48;;;;;;;;;;5111048;27;20425;-70
2023/04/09 06:22:57;;;;;;;2.17;1.98;;;3.60;99.90;;;;;;5112315;27;20424;-70
2023/04/09 06:25:24;;;;;;;2.22;1.70;;;;;;;;;;5109291;27;20428;-70
2023/04/09 06:27:51;;;;;;;3.17;2.13;;;;;;;;;;5104650;27;20416;-70
2023/04/09 06:30:18;;;;;;;2.60;1.58;;;;;;;;;;5099055;27;20428;-70
2023/04/09 06:32:47;;;;;;;1.75;1.65;;;;;;;;;;5111828;27;20422;-70
2023/04/09 06:35:21;;;;;;;3.45;1.75;;;;;;;;;;5101244;27;20412;-70
2023/04/09 06:37:48;;;;;;;1.42;1.25;;;;;;;;;;5114630;27;20430;-71
2023/04/09 06:40:15;;;;;;;2.42;1.77;;;;;;;;;;5113391;27;20968;-70
2023/04/09 06:42:42;;;;;;;2.25;2.05;;;;;;;;;;5111438;27;20439;-70
2023/04/09 06:45:12;;;;;;;2.83;2.03;;;;;;;;;;5105606;27;20512;-70
2023/04/09 06:47:40;;;;;;;3.17;2.17;;;;;;;;;;5102043;27;20437;-71
2023/04/09 06:50:07;;;;;;;3.25;2.30;;;;;;;;;;5098913;27;20499;-70
2023/04/09 06:52:35;;;;;;;3.00;2.00;;;;;;;;;;5096550;28;20436;-71
2023/04/09 06:55:02;;;;;;;1.93;1.60;;;;;;;;;;5097837;27;20427;-71
2023/04/09 06:57:32;;;;;;;2.35;1.70;;;;;;;;;;5094230;27;20426;-70
2023/04/09 06:59:59;;;;;;;4.72;2.28;;;;;;;;;;5112862;27;20906;-71
2023/04/09 07:02:26;;;;;;;3.80;1.92;;;;;;;;;;5096892;27;20805;-71
2023/04/09 07:04:54;;;;;;;2.70;2.13;;;;;;;;;;5109567;27;20418;-71
2023/04/09 07:07:21;;;;;;;2.42;2.22;;;;;;;;;;5097371;27;20426;-68
2023/04/09 07:09:52;;;;;;;3.22;1.90;;;;;;;;;;5102738;27;20494;-70
2023/04/09 07:12:33;;;;;;;3.38;2.40;;;;;;;;;;5099461;27;20432;-70
2023/04/09 07:15:05;;;;;;;4.30;2.30;;;;;;;;;;5093362;27;20449;-70
2023/04/09 07:17:35;;;;;;;3.42;2.13;;;;;;;;;;5106362;27;20440;-70
2023/04/09 07:20:03;;;;;;;2.87;2.03;;;;;;;;;;5112552;27;20479;-70
2023/04/09 07:22:32;;;;;;;2.00;1.90;;;;;;;;;;5089387;27;20453;-70
2023/04/09 07:24:59;;;;;;;4.47;2.15;;;;;;;;;;5095730;28;20432;-70
2023/04/09 07:27:27;;;;;;;3.53;2.60;;;;;;;;;;5105333;27;20774;-70
2023/04/09 07:29:55;;;;;;;2.92;2.33;;;;;;;;;;5105392;27;20517;-70
2023/04/09 07:32:23;;;;;;;3.47;2.90;;;;;;;;;;5093191;27;20470;-70
2023/04/09 07:34:53;;;;;;;4.10;2.50;;;;;;;;;;5094197;28;20476;-71
2023/04/09 07:37:24;;;;;;;4.55;2.45;;;;;;;;;;5088000;27;20461;-71
2023/04/09 07:39:51;;;;;;;5.72;2.92;;;;;;;;;;5099032;28;20435;-71
2023/04/09 07:42:18;;;;;;;2.50;1.92;;;;;;;;;;5101304;28;20432;-71
2023/04/09 07:44:46;;;;;;;2.53;2.33;;;;;;;;;;5095775;28;20444;-71
2023/04/09 07:47:14;;;;;;;4.13;2.73;;;;;;;;;;5092462;28;20424;-71
2023/04/09 07:49:42;;;;;;;4.72;2.25;;;;;;;;;;5105024;28;20515;-70
2023/04/09 07:52:09;;;;;;;3.25;2.75;;;;;;;;;;5097717;27;20842;-70
2023/04/09 07:54:36;;;;;;;4.35;2.40;;;;;;;;;;5104101;27;20489;-70
2023/04/09 07:57:04;;;;;;;5.40;2.23;;;;;;;;;;5092923;28;20875;-71
2023/04/09 07:59:31;;;;;;;3.78;2.85;;;;;;;;;;5091993;28;20630;-73
2023/04/09 08:01:58;;;;;;;3.13;2.65;;;;;;;;;;5092226;28;20431;-70
2023/04/09 08:04:26;;;;;;;4.35;2.92;;;;;;;;;;5095128;27;20424;-70
2023/04/09 08:06:56;;;;;;;5.32;3.38;;;;;;;;;;5100312;27;20422;-72
2023/04/09 08:09:28;;;;;;;3.15;2.85;;;;;;;;;;5088053;28;20510;-72
2023/04/09 08:11:56;;;;;;;3.47;2.83;;;;;;;;;;5114792;27;20452;-72
2023/04/09 08:14:23;;;;;;;3.22;2.72;;;;;;;;;;5085277;27;20416;-72
2023/04/09 08:16:50;;;;;;;3.90;2.58;;;;;;;;;;5090782;28;20422;-71
2023/04/09 08:19:19;;;;;;;4.20;3.28;;;;;;;;;;5102929;27;20421;-72
2023/04/09 08:21:51;;;;;;;4.22;2.88;;;;;;;;;;5106272;27;20437;-72
2023/04/09 08:24:18;;;;;;;6.70;3.53;;;;;;;;;;5094445;28;20424;-72
2023/04/09 08:26:45;;;;;;;3.45;2.70;;;;;;;;;;5090026;28;20534;-71
2023/04/09 08:29:13;;;;;;;4.97;3.03;;;;;;;;;;5092390;27;20421;-72
2023/04/09 08:31:41;;;;;;;4.70;3.35;;;;;;;;;;5097394;27;21186;-72
2023/04/09 08:34:08;;;;;;;4.65;3.00;;;;;;;;;;5102417;28;20440;-71
2023/04/09 08:36:35;;;;;;;3.60;3.05;;;;;;;;;;5096937;28;20505;-72
2023/04/09 08:39:03;;;;;;;3.85;3.45;;;;;;;;;;5085576;28;20928;-72
2023/04/09 08:41:33;;;;;;;3.03;2.58;;;;;;;;;;5108065;27;20437;-74
2023/04/09 08:44:00;;;;;;;5.37;2.30;;;;;;;;;;5087817;27;20464;-69
2023/04/09 08:46:30;;;;;;;2.80;2.50;;;;;;;;;;5096664;27;20495;-68
2023/04/09 08:48:58;;;;;;;3.17;2.72;;;;;;;;;;5095923;28;20427;-69
2023/04/09 08:51:27;;;;;;;4.27;2.63;;;;;;;;;;5093424;28;21181;-69
2023/04/09 08:53:58;;;;;;;5.70;3.15;;;;;;;;;;5104839;27;20434;-69
2023/04/09 08:56:33;;;;;;;2.92;2.38;;;;;;;;;;5097398;28;20546;-69
2023/04/09 08:59:03;;;;;;;4.85;3.65;;;;;;;;;;5098133;28;20506;-71
2023/04/09 09:01:31;;;;;;;3.37;2.87;;;;;;;;;;5101249;28;20525;-70
2023/04/09 09:04:05;;;;;;;6.95;3.45;;;;;;;;;;5107287;28;20426;-71
2023/04/09 09:06:34;;;;;;;3.93;3.00;;;;;;;;;;5097283;28;20464;-71
2023/04/09 09:09:04;;;;;;;4.60;3.05;;;;;;;;;;5091407;28;20914;-71
2023/04/09 09:11:31;;;;;;;5.45;2.90;;;;;;;;;;5092964;28;20854;-71
2023/04/09 09:14:09;;;;;;;3.95;2.95;;;;;;;;;;5089833;28;20429;-71
2023/04/09 09:16:41;;;;;;;4.28;2.78;;;;;;;;;;5087867;28;20480;-72
2023/04/09 09:19:09;;;;;;;6.28;3.42;;;;;;;;;;5104930;28;20536;-70
2023/04/09 09:21:37;;;;;;;4.78;2.95;;;;;;;;;;5097832;28;21028;-73
2023/04/09 09:24:16;;;;;;;4.65;3.05;;;;;;;;;;5099787;28;20450;-63
2023/04/09 09:26:43;;;;;;;4.30;2.92;;;;;;;;;;5105475;28;20560;-63
2023/04/09 09:29:10;;;;;;;4.10;2.72;;;;;;;;;;5100156;28;20421;-64
2023/04/09 09:31:46;;;;;;;3.75;2.72;;;;;;;;;;5096971;28;20924;-63
2023/04/09 09:34:16;;;;;;;3.70;2.67;;;;;;;;;;5094224;27;20432;-63
2023/04/09 09:36:44;;;;;;;2.92;2.63;;;;;;;;;;5096791;28;20433;-63
2023/04/09 09:39:12;;;;;;;4.00;2.90;;;;;;;;;;5093067;27;21272;-62
2023/04/09 09:41:42;;;;;;;3.45;2.70;;;;;;;;;;5097363;28;20440;-63
2023/04/09 09:44:10;;;;;;;2.80;2.53;;;;;;;;;;5099914;27;20440;-63
2023/04/09 09:46:39;;;;;;;3.50;2.28;;;;;;;;;;5097690;28;20581;-63
2023/04/09 09:49:07;;;;;;;2.92;2.63;;;;;;;;;;5097270;28;20429;-62
2023/04/09 09:51:39;;;;;;;5.15;2.63;;;;;;;;;;5094571;28;20432;-62
2023/04/09 09:54:09;;;;;;;2.87;2.43;;;;;;;;;;5086742;28;20429;-62
2023/04/09 09:56:38;;;;;;;1.80;1.65;;;;;;;;;;5099240;27;21115;-62
2023/04/09 09:59:17;;;;;;;3.15;2.50;;;;;;;;;;5090241;27;20775;-63
2023/04/09 10:01:45;;;;;;;2.42;2.20;;;;;;;;;;5098959;28;20423;-63
2023/04/09 10:04:13;;;;;;;3.67;2.90;;;;;;;;;;5106741;27;20426;-63
2023/04/09 10:06:47;;;;;;;2.78;2.10;;;;;;;;;;5104831;27;20527;-63
2023/04/09 10:09:15;;;;;;;3.00;2.70;;;;;;;;;;5091137;27;20426;-62
2023/04/09 10:11:44;;;;;;;3.80;2.27;;;;;;;;;;5099210;27;20818;-63
2023/04/09 10:14:14;;;;;;;4.30;2.55;;;;;;;;;;5094953;27;20424;-62
2023/04/09 10:16:41;;;;;;;3.80;2.83;;;;;;;;;;5098863;27;20501;-62
2023/04/09 10:19:12;;;;;;;4.00;3.03;;;;;;;;;;5103511;27;20888;-62
2023/04/09 10:22:01;;;;;;;4.33;2.87;;;;;;;;;;5098803;27;20428;-71
2023/04/09 10:24:32;;;;;;;2.53;1.85;;;;;;;;;;5105388;27;20505;-71
2023/04/09 10:27:10;;;;;;;2.22;1.60;;;;;;;;;;5086264;27;20436;-71
2023/04/09 10:29:48;;;;;;;3.20;2.10;;;;;;;;;;5103320;27;20461;-72
2023/04/09 10:32:20;;;;;;;2.45;1.67;;;;;;;;;;5101389;27;20435;-74
2023/04/09 10:34:48;;;;;;;3.00;2.47;;;;;;;;;;5110184;27;20424;-68
2023/04/09 10:37:20;;;;;;;2.92;2.55;;;;;;;;;;5095678;27;21020;-69
2023/04/09 10:39:47;;;;;;;3.53;2.10;;;;;;;;;;5102876;27;20424;-69
2023/04/09 10:42:17;;;;;;;2.70;1.90;;;;;;;;;;5105861;27;20439;-68
2023/04/09 10:44:44;;;;;;;2.42;2.22;;;;;;;;;;5094055;27;20513;-69
2023/04/09 10:47:12;;;;;;;2.47;2.28;;;;;;;;;;5093949;28;20432;-69
2023/04/09 10:49:40;;;;;;;2.90;2.58;;;;;;;;;;5097965;27;20424;-68
2023/04/09 10:52:12;;;;;;;9.55;5.07;;;;;;;;;;5089149;27;20424;-69
2023/04/09 10:54:44;;;;;;;4.40;3.10;;;;;;;;;;5091126;28;20448;-69
2023/04/09 10:57:15;;;;;;;3.30;2.60;;;;;;;;;;5094587;27;20919;-69
2023/04/09 10:59:44;;;;;;;3.13;2.30;;;;;;;;;;5089652;28;20430;-69
2023/04/09 11:02:16;;;;;;;2.45;2.25;;;;;;;;;;5090600;27;20466;-69
2023/04/09 11:04:56;;;;;;;2.85;2.53;;;;;;;;;;5099711;27;20943;-69
2023/04/09 11:07:23;;;;;;;2.97;2.35;;;;;;;;;;5107871;27;20421;-69
2023/04/09 11:09:50;;;;;;;2.70;2.28;;;;;;;;;;5108923;27;20484;-69
2023/04/09 11:12:18;;;;;;;5.68;2.45;;;;;;;;;;5110988;27;20434;-69
2023/04/09 11:14:45;;;;;;;2.80;2.20;;;;;;;;;;5090011;28;20426;-69
2023/04/09 11:17:12;;;;;;;2.50;2.30;;;;;;;;;;5088470;28;20445;-69
2023/04/09 11:19:39;;;;;;;2.92;2.28;;;;;;;;;;5095200;27;20520;-69
2023/04/09 11:22:07;;;;;;;1.85;1.63;;;;;;;;;;5097595;28;20425;-69
2023/04/09 11:24:40;;;;;;;3.13;2.35;;;;;;;;;;5097227;27;21043;-69
2023/04/09 11:27:08;;;;;;;2.60;2.40;;;;;;;;;;5099437;27;20429;-69
2023/04/09 11:29:38;;;;;;;2.28;2.13;;;;;;;;;;5093648;28;20462;-69
2023/04/09 11:32:06;;;;;;;2.10;2.00;;;;;;;;;;5103172;27;20437;-69
2023/04/09 11:34:40;;;;;;;2.75;2.17;;;;;;;;;;5111573;27;20426;-69
2023/04/09 11:37:15;;;;;;;1.88;1.67;;;;;;;;;;5092707;27;20428;-69
2023/04/09 11:39:45;;;;;;;1.53;1.43;;;;;;;;;;5089567;28;21001;-69
2023/04/09 11:42:15;;;;;;;1.75;1.65;;;;;;;;;;5093749;27;20763;-69
2023/04/09 11:44:45;;;;;;;2.20;1.70;;;;;;;;;;5103055;27;20514;-69
2023/04/09 11:47:13;;;;;;;1.60;1.40;;;;;;;;;;5099001;27;20548;-69
2023/04/09 11:49:40;;;;;;;1.65;1.40;;;;;;;;;;5101232;27;20422;-66
2023/04/09 11:52:08;;;;;;;1.43;1.33;;;;;;;;;;5086553;27;20424;-68
2023/04/09 11:54:35;;;;;;;1.40;1.30;;;;;;;;;;5099827;27;20429;-69
2023/04/09 11:57:05;;;;;;;2.17;1.98;;;;;;;;;;5093516;27;20426;-69
2023/04/09 11:59:32;;;;;;;1.70;1.60;;;;;;;;;;5099866;27;20505;-68
2023/04/09 12:02:00;;;;;;;1.57;1.40;;;;;;;;;;5116858;27;20478;-69
2023/04/09 12:04:27;;;;;;;1.88;1.52;;;;;;;;;;5100361;27;20448;-68
2023/04/09 12:06:58;;;;;;;1.50;1.40;;;;;;;;;;5090913;27;20429;-69
2023/04/09 12:09:25;;;;;;;2.10;1.63;;;;;;;;;;5096553;27;20469;-69
2023/04/09 12:11:52;;;;;;;1.15;1.05;;;;;;;;;;5088687;27;20433;-68
2023/04/09 12:14:21;;;;;;;2.03;1.40;;;;;;;;;;5099604;27;20430;-69
2023/04/09 12:16:51;;;;;;;1.70;1.60;;;;;;;;;;5089418;28;21219;-68
2023/04/09 12:19:20;;;;;;;1.40;1.20;;;;;;;;;;5097088;28;20425;-68
2023/04/09 12:21:47;;;;;;;1.60;1.50;;;;;;;;;;5092867;28;20526;-68
2023/04/09 12:24:15;;;;;;;1.88;1.77;;;;;;;;;;5093612;27;20975;-68
2023/04/09 12:26:43;;;;;;;2.13;1.08;;;;;;;;;;5104182;27;20492;-69
2023/04/09 12:29:10;;;;;;;1.80;1.40;;;;;;;;;;5091820;27;20439;-69
2023/04/09 12:31:37;;;;;;;1.35;1.27;;;;;;;;;;5096468;28;20782;-69
2023/04/09 12:34:04;;;;;;;1.95;1.48;;;;;;;;;;5093096;27;20438;-69
2023/04/09 12:36:31;;;;;;;1.70;1.10;;;;;;;;;;5093903;28;20432;-69
2023/04/09 12:39:01;;;;;;;1.73;1.50;;;;;;;;;;5101812;28;20434;-69
2023/04/09 12:41:29;;;;;;;2.35;1.83;;;;;;;;;;5091846;28;20429;-69
2023/04/09 12:43:57;;;;;;;3.33;1.63;;;;;;;;;;5094499;28;20435;-68
2023/04/09 12:46:27;;;;;;;1.13;1.10;;;;;;;;;;5094161;28;20908;-68
2023/04/09 12:48:54;;;;;;;2.30;1.17;;;;;;;;;;5091525;28;20472;-69
2023/04/09 12:51:21;;;;;;;2.33;1.40;;;;;;;;;;5096789;28;20427;-69
2023/04/09 12:53:49;;;;;;;3.03;1.93;;;;;;;;;;5096508;27;20450;-69
2023/04/09 12:56:16;;;;;;;1.52;1.30;;;;;;;;;;5103765;27;20785;-69
2023/04/09 12:58:46;;;;;;;1.30;1.25;;;;;;;;;;5107741;27;21229;-69
2023/04/09 13:01:13;;;;;;;1.80;1.52;;;;;;;;;;5115648;27;20426;-69
2023/04/09 13:03:40;;;;;;;1.38;1.27;;;;;;;;;;5113076;27;20512;-69
2023/04/09 13:06:08;;;;;;;2.10;1.45;;;;;;;;;;5102119;27;20450;-69
2023/04/09 13:08:35;;;;;;;1.58;1.48;;;;;;;;;;5090303;28;20444;-69
2023/04/09 13:11:03;;;;;;;1.33;1.23;;;;;;;;;;5099601;28;20438;-68
2023/04/09 13:13:30;;;;;;;1.55;1.45;;;;;;;;;;5101158;28;20789;-68
2023/04/09 13:15:57;;;;;;;1.67;1.58;;;;;;;;;;5100124;28;20478;-68
2023/04/09 13:18:25;;;;;;;1.40;1.30;;;;;;;;;;5102185;28;20440;-69
2023/04/09 13:20:52;;;;;;;2.10;1.50;;;;;;;;;;5090605;28;21012;-69
2023/04/09 13:23:22;;;;;;;1.27;1.17;;;;;;;;;;5091501;28;20793;-66
2023/04/09 13:25:49;;;;;;;1.25;1.20;;;;;;;;;;5097867;28;20933;-66
2023/04/09 13:28:16;;;;;;;2.05;1.45;;;;;;;;;;5100673;28;20924;-66
2023/04/09 13:30:43;;;;;;;1.60;1.45;;;;;;;;;;5090478;28;20453;-66
2023/04/09 13:33:11;;;;;;;1.75;1.52;;;;;;;;;;5099698;27;20418;-66
2023/04/09 13:35:38;;;;;;;2.00;1.70;;;;;;;;;;5107523;27;20433;-66
2023/04/09 13:38:05;;;;;;;1.92;1.27;;;;;;;;;;5102851;27;20426;-67
2023/04/09 13:40:35;;;;;;;1.17;1.10;;;;;;;;;;5098307;27;20501;-67
2023/04/09 13:43:02;;;;;;;2.00;1.00;;;;;;;;;;5093002;27;20492;-67
2023/04/09 13:45:32;;;;;;;1.00;1.00;;;;;;;;;;5098390;28;20431;-67
2023/04/09 13:48:07;;;;;;;1.40;0.95;;;;;;;;;;5093029;27;21125;-67
2023/04/09 13:50:34;;;;;;;1.42;1.13;;;;;;;;;;5104913;27;20466;-67
2023/04/09 13:53:04;;;;;;;0.95;0.95;;;;;;;;;;5091484;27;20429;-67
2023/04/09 13:55:31;;;;;;;0.90;0.90;;;;;;;;;;5090608;28;20435;-67
2023/04/09 13:57:58;;;;;;;1.60;1.10;;;;;;;;;;5096130;28;21170;-67
2023/04/09 14:00:25;;;;;;;1.30;1.20;;;;;;;;;;5102908;27;21855;-67
2023/04/09 14:02:53;;;;;;;1.23;1.13;;;;;;;;;;5104837;27;20842;-67
2023/04/09 14:05:20;;;;;;;1.48;1.15;;;;;;;;;;5099996;27;20430;-67
2023/04/09 14:07:50;;;;;;;2.83;1.60;;;;;;;;;;5096316;28;20899;-67
2023/04/09 14:10:17;;;;;;;1.83;1.73;;;;;;;;;;5099084;28;20424;-67
2023/04/09 14:12:45;;;;;;;1.75;1.17;;;;;;;;;;5093326;28;20434;-65
2023/04/09 14:15:12;;;;;;;0.90;0.90;;;;;;;;;;5100770;27;20534;-64
2023/04/09 14:17:39;;;;;;;1.13;1.13;;;;;;;;;;5098267;27;20427;-65
2023/04/09 14:20:06;;;;;;;1.13;1.05;;;;;;;;;;5096115;28;20428;-64
2023/04/09 14:22:34;;;;;;;1.05;1.05;;;;;;;;;;5102378;27;20912;-64
2023/04/09 14:25:01;;;;;;;1.40;1.30;;;;;;;;;;5103284;27;20466;-64
2023/04/09 14:27:27;;;;;;;1.77;1.10;;;4.00;99.90;;;;;;5089866;28;20843;-65
2023/04/09 14:29:54;;;;;;;1.10;1.00;;;24.30;99.90;;;;;;5112287;27;20421;-64
2023/04/09 14:32:21;;;;;;;1.20;1.20;;;23.90;99.90;;;;;;5091226;28;20429;-65
2023/04/09 14:34:47;;;;;;;1.05;1.05;;;24.20;99.90;;;;;;5101377;27;20513;-65
2023/04/09 14:37:15;;;;;;;1.75;1.25;;;23.50;99.90;;;;;;5094785;28;20431;-65
2023/04/09 14:39:42;;;;;;;0.85;0.85;;;23.30;99.90;;;;;;5095082;28;20420;-65